sensor_id;sensor_type;location;lat;lon;timestamp;P1;durP1;ratioP1;P2;durP2;ratioP2
3066;SDS011;1544;48.834;9.194;2022-11-22T00:00:22;4.53;;;3.23;;
3066;SDS011;1544;48.834;9.194;2022-11-22T00:02:58;5.23;;;4.00;;
3066;SDS011;1544;48.834;9.194;2022-11-22T00:05:33;4.80;;;3.17;;
3066;SDS011;1544;48.834;9.194;2022-11-22T00:08:08;4.47;;;2.83;;
3066;SDS011;1544;48.834;9.194;2022-11-22T00:10:46;2.70;;;2.50;;
3066;SDS011;1544;48.834;9.194;2022-11-22T00:13:22;3.10;;;2.37;;
3066;SDS011;1544;48.834;9.194;2022-11-22T00:16:01;2.67;;;2.40;;
3066;SDS011;1544;48.834;9.194;2022-11-22T00:18:37;2.50;;;2.23;;
3066;SDS011;1544;48.834;9.194;2022-11-22T00:21:12;2.40;;;2.17;;
3066;SDS011;1544;48.834;9.194;2022-11-22T00:23:47;3.37;;;2.00;;
3066;SDS011;1544;48.834;9.194;2022-11-22T00:26:22;2.43;;;2.00;;
3066;SDS011;1544;48.834;9.194;2022-11-22T00:28:58;2.40;;;2.20;;
3066;SDS011;1544;48.834;9.194;2022-11-22T00:31:33;3.07;;;2.13;;
3066;SDS011;1544;48.834;9.194;2022-11-22T00:34:08;4.60;;;2.77;;
3066;SDS011;1544;48.834;9.194;2022-11-22T00:36:43;2.47;;;2.10;;
3066;SDS011;1544;48.834;9.194;2022-11-22T00:39:18;4.93;;;2.80;;
3066;SDS011;1544;48.834;9.194;2022-11-22T00:41:52;5.23;;;2.83;;
3066;SDS011;1544;48.834;9.194;2022-11-22T00:44:27;2.50;;;2.30;;
3066;SDS011;1544;48.834;9.194;2022-11-22T00:47:02;2.50;;;2.27;;
3066;SDS011;1544;48.834;9.194;2022-11-22T00:49:37;3.40;;;1.60;;
3066;SDS011;1544;48.834;9.194;2022-11-22T00:52:12;2.50;;;2.13;;
3066;SDS011;1544;48.834;9.194;2022-11-22T00:54:47;3.37;;;2.30;;
3066;SDS011;1544;48.834;9.194;2022-11-22T00:57:28;2.73;;;2.00;;
3066;SDS011;1544;48.834;9.194;2022-11-22T01:00:04;2.80;;;2.07;;
3066;SDS011;1544;48.834;9.194;2022-11-22T01:02:40;1.90;;;1.80;;
3066;SDS011;1544;48.834;9.194;2022-11-22T01:05:14;1.97;;;1.57;;
3066;SDS011;1544;48.834;9.194;2022-11-22T01:07:51;2.67;;;2.37;;
3066;SDS011;1544;48.834;9.194;2022-11-22T01:10:27;3.00;;;1.63;;
3066;SDS011;1544;48.834;9.194;2022-11-22T01:13:02;5.20;;;1.40;;
3066;SDS011;1544;48.834;9.194;2022-11-22T01:15:38;1.20;;;1.10;;
3066;SDS011;1544;48.834;9.194;2022-11-22T01:18:13;2.87;;;1.20;;
3066;SDS011;1544;48.834;9.194;2022-11-22T01:20:48;1.50;;;0.90;;
3066;SDS011;1544;48.834;9.194;2022-11-22T01:23:23;1.17;;;1.07;;
3066;SDS011;1544;48.834;9.194;2022-11-22T01:25:59;2.97;;;1.20;;
3066;SDS011;1544;48.834;9.194;2022-11-22T01:28:35;2.17;;;1.20;;
3066;SDS011;1544;48.834;9.194;2022-11-22T01:31:10;1.70;;;0.97;;
3066;SDS011;1544;48.834;9.194;2022-11-22T01:33:45;1.60;;;1.13;;
3066;SDS011;1544;48.834;9.194;2022-11-22T01:36:20;1.43;;;0.90;;
3066;SDS011;1544;48.834;9.194;2022-11-22T01:38:55;3.40;;;1.30;;
3066;SDS011;1544;48.834;9.194;2022-11-22T01:41:30;2.47;;;1.13;;
3066;SDS011;1544;48.834;9.194;2022-11-22T01:44:18;1.10;;;1.00;;
3066;SDS011;1544;48.834;9.194;2022-11-22T01:47:09;1.20;;;1.10;;
3066;SDS011;1544;48.834;9.194;2022-11-22T01:49:55;1.10;;;1.00;;
3066;SDS011;1544;48.834;9.194;2022-11-22T01:52:34;1.13;;;1.00;;
3066;SDS011;1544;48.834;9.194;2022-11-22T01:55:10;1.97;;;1.20;;
3066;SDS011;1544;48.834;9.194;2022-11-22T01:57:46;1.77;;;1.20;;
3066;SDS011;1544;48.834;9.194;2022-11-22T02:00:21;2.97;;;1.20;;
3066;SDS011;1544;48.834;9.194;2022-11-22T02:02:58;1.30;;;1.10;;
3066;SDS011;1544;48.834;9.194;2022-11-22T02:05:35;2.00;;;1.23;;
3066;SDS011;1544;48.834;9.194;2022-11-22T02:08:22;1.40;;;1.00;;
3066;SDS011;1544;48.834;9.194;2022-11-22T02:11:11;2.13;;;1.10;;
3066;SDS011;1544;48.834;9.194;2022-11-22T02:13:46;2.90;;;1.37;;
3066;SDS011;1544;48.834;9.194;2022-11-22T02:16:24;2.60;;;1.33;;
3066;SDS011;1544;48.834;9.194;2022-11-22T02:18:59;1.20;;;1.10;;
3066;SDS011;1544;48.834;9.194;2022-11-22T02:21:34;2.57;;;1.23;;
3066;SDS011;1544;48.834;9.194;2022-11-22T02:24:15;1.50;;;1.20;;
3066;SDS011;1544;48.834;9.194;2022-11-22T02:26:59;1.30;;;1.20;;
3066;SDS011;1544;48.834;9.194;2022-11-22T02:29:34;3.03;;;1.30;;
3066;SDS011;1544;48.834;9.194;2022-11-22T02:32:09;2.23;;;1.30;;
3066;SDS011;1544;48.834;9.194;2022-11-22T02:34:45;1.40;;;1.30;;
3066;SDS011;1544;48.834;9.194;2022-11-22T02:37:26;3.13;;;1.37;;
3066;SDS011;1544;48.834;9.194;2022-11-22T02:40:06;1.10;;;1.00;;
3066;SDS011;1544;48.834;9.194;2022-11-22T02:42:47;1.20;;;1.10;;
3066;SDS011;1544;48.834;9.194;2022-11-22T02:45:29;2.17;;;1.30;;
3066;SDS011;1544;48.834;9.194;2022-11-22T02:48:07;3.10;;;1.27;;
3066;SDS011;1544;48.834;9.194;2022-11-22T02:50:45;1.57;;;1.10;;
3066;SDS011;1544;48.834;9.194;2022-11-22T02:53:20;1.50;;;1.07;;
3066;SDS011;1544;48.834;9.194;2022-11-22T02:55:55;3.13;;;1.10;;
3066;SDS011;1544;48.834;9.194;2022-11-22T02:58:30;1.77;;;1.17;;
3066;SDS011;1544;48.834;9.194;2022-11-22T03:01:05;2.13;;;1.37;;
3066;SDS011;1544;48.834;9.194;2022-11-22T03:03:40;1.40;;;1.13;;
3066;SDS011;1544;48.834;9.194;2022-11-22T03:06:15;1.33;;;1.07;;
3066;SDS011;1544;48.834;9.194;2022-11-22T03:08:50;1.20;;;1.10;;
3066;SDS011;1544;48.834;9.194;2022-11-22T03:11:29;1.50;;;1.20;;
3066;SDS011;1544;48.834;9.194;2022-11-22T03:14:04;1.83;;;1.57;;
3066;SDS011;1544;48.834;9.194;2022-11-22T03:16:39;1.37;;;1.20;;
3066;SDS011;1544;48.834;9.194;2022-11-22T03:19:19;2.73;;;1.13;;
3066;SDS011;1544;48.834;9.194;2022-11-22T03:21:54;1.40;;;1.00;;
3066;SDS011;1544;48.834;9.194;2022-11-22T03:24:29;2.93;;;1.30;;
3066;SDS011;1544;48.834;9.194;2022-11-22T03:27:04;1.80;;;1.20;;
3066;SDS011;1544;48.834;9.194;2022-11-22T03:29:39;1.97;;;1.20;;
3066;SDS011;1544;48.834;9.194;2022-11-22T03:32:14;1.20;;;1.10;;
3066;SDS011;1544;48.834;9.194;2022-11-22T03:34:49;2.17;;;1.30;;
3066;SDS011;1544;48.834;9.194;2022-11-22T03:37:24;1.33;;;1.07;;
3066;SDS011;1544;48.834;9.194;2022-11-22T03:39:59;1.20;;;1.10;;
3066;SDS011;1544;48.834;9.194;2022-11-22T03:42:34;1.30;;;1.20;;
3066;SDS011;1544;48.834;9.194;2022-11-22T03:45:09;2.23;;;1.53;;
3066;SDS011;1544;48.834;9.194;2022-11-22T03:47:44;1.70;;;1.17;;
3066;SDS011;1544;48.834;9.194;2022-11-22T03:50:19;1.03;;;0.93;;
3066;SDS011;1544;48.834;9.194;2022-11-22T03:52:54;1.70;;;1.00;;
3066;SDS011;1544;48.834;9.194;2022-11-22T03:55:28;2.17;;;1.20;;
3066;SDS011;1544;48.834;9.194;2022-11-22T03:58:03;3.57;;;1.10;;
3066;SDS011;1544;48.834;9.194;2022-11-22T04:00:38;3.50;;;1.20;;
3066;SDS011;1544;48.834;9.194;2022-11-22T04:03:13;1.63;;;1.03;;
3066;SDS011;1544;48.834;9.194;2022-11-22T04:05:48;2.60;;;1.20;;
3066;SDS011;1544;48.834;9.194;2022-11-22T04:08:23;0.90;;;0.90;;
3066;SDS011;1544;48.834;9.194;2022-11-22T04:10:58;1.10;;;1.00;;
3066;SDS011;1544;48.834;9.194;2022-11-22T04:13:33;1.03;;;0.93;;
3066;SDS011;1544;48.834;9.194;2022-11-22T04:16:27;1.80;;;0.90;;
3066;SDS011;1544;48.834;9.194;2022-11-22T04:19:02;2.23;;;1.10;;
3066;SDS011;1544;48.834;9.194;2022-11-22T04:21:37;1.13;;;1.00;;
3066;SDS011;1544;48.834;9.194;2022-11-22T04:24:12;2.00;;;1.17;;
3066;SDS011;1544;48.834;9.194;2022-11-22T04:27:05;2.70;;;1.00;;
3066;SDS011;1544;48.834;9.194;2022-11-22T04:29:40;2.23;;;1.17;;
3066;SDS011;1544;48.834;9.194;2022-11-22T04:32:15;1.17;;;1.07;;
3066;SDS011;1544;48.834;9.194;2022-11-22T04:35:16;3.43;;;1.03;;
3066;SDS011;1544;48.834;9.194;2022-11-22T04:37:54;1.53;;;1.00;;
3066;SDS011;1544;48.834;9.194;2022-11-22T04:40:28;1.73;;;1.00;;
3066;SDS011;1544;48.834;9.194;2022-11-22T04:43:04;1.70;;;1.00;;
3066;SDS011;1544;48.834;9.194;2022-11-22T04:45:59;3.27;;;1.20;;
3066;SDS011;1544;48.834;9.194;2022-11-22T04:48:35;2.40;;;1.03;;
3066;SDS011;1544;48.834;9.194;2022-11-22T04:51:11;4.57;;;1.03;;
3066;SDS011;1544;48.834;9.194;2022-11-22T04:54:06;2.43;;;1.07;;
3066;SDS011;1544;48.834;9.194;2022-11-22T04:56:41;3.63;;;1.40;;
3066;SDS011;1544;48.834;9.194;2022-11-22T04:59:17;2.73;;;1.17;;
3066;SDS011;1544;48.834;9.194;2022-11-22T05:01:52;2.30;;;1.30;;
3066;SDS011;1544;48.834;9.194;2022-11-22T05:04:27;3.30;;;1.20;;
3066;SDS011;1544;48.834;9.194;2022-11-22T05:07:02;2.73;;;1.20;;
3066;SDS011;1544;48.834;9.194;2022-11-22T05:09:37;1.50;;;1.10;;
3066;SDS011;1544;48.834;9.194;2022-11-22T05:12:12;2.10;;;1.40;;
3066;SDS011;1544;48.834;9.194;2022-11-22T05:14:47;2.00;;;1.30;;
3066;SDS011;1544;48.834;9.194;2022-11-22T05:17:22;2.10;;;1.40;;
3066;SDS011;1544;48.834;9.194;2022-11-22T05:19:57;2.30;;;1.50;;
3066;SDS011;1544;48.834;9.194;2022-11-22T05:22:32;2.33;;;1.60;;
3066;SDS011;1544;48.834;9.194;2022-11-22T05:25:25;2.57;;;1.73;;
3066;SDS011;1544;48.834;9.194;2022-11-22T05:28:01;2.57;;;1.40;;
3066;SDS011;1544;48.834;9.194;2022-11-22T05:30:39;3.00;;;1.43;;
3066;SDS011;1544;48.834;9.194;2022-11-22T05:33:14;6.30;;;1.70;;
3066;SDS011;1544;48.834;9.194;2022-11-22T05:35:49;2.90;;;1.40;;
3066;SDS011;1544;48.834;9.194;2022-11-22T05:38:24;3.53;;;1.77;;
3066;SDS011;1544;48.834;9.194;2022-11-22T05:41:00;5.13;;;1.80;;
3066;SDS011;1544;48.834;9.194;2022-11-22T05:43:36;3.30;;;1.80;;
3066;SDS011;1544;48.834;9.194;2022-11-22T05:46:13;2.47;;;1.50;;
3066;SDS011;1544;48.834;9.194;2022-11-22T05:48:56;3.80;;;1.73;;
3066;SDS011;1544;48.834;9.194;2022-11-22T05:51:32;1.90;;;1.50;;
3066;SDS011;1544;48.834;9.194;2022-11-22T05:54:08;2.17;;;1.20;;
3066;SDS011;1544;48.834;9.194;2022-11-22T05:56:43;1.90;;;1.50;;
3066;SDS011;1544;48.834;9.194;2022-11-22T05:59:18;3.50;;;1.60;;
3066;SDS011;1544;48.834;9.194;2022-11-22T06:01:53;2.17;;;1.17;;
3066;SDS011;1544;48.834;9.194;2022-11-22T06:04:28;1.80;;;1.20;;
3066;SDS011;1544;48.834;9.194;2022-11-22T06:07:03;3.40;;;1.30;;
3066;SDS011;1544;48.834;9.194;2022-11-22T06:09:43;2.50;;;1.10;;
3066;SDS011;1544;48.834;9.194;2022-11-22T06:12:18;2.97;;;1.23;;
3066;SDS011;1544;48.834;9.194;2022-11-22T06:14:53;1.80;;;1.30;;
3066;SDS011;1544;48.834;9.194;2022-11-22T06:17:28;2.20;;;1.33;;
3066;SDS011;1544;48.834;9.194;2022-11-22T06:20:04;2.37;;;1.40;;
3066;SDS011;1544;48.834;9.194;2022-11-22T06:22:40;2.60;;;1.63;;
3066;SDS011;1544;48.834;9.194;2022-11-22T06:25:15;2.30;;;1.70;;
3066;SDS011;1544;48.834;9.194;2022-11-22T06:27:50;3.60;;;2.07;;
3066;SDS011;1544;48.834;9.194;2022-11-22T06:30:25;2.80;;;2.27;;
3066;SDS011;1544;48.834;9.194;2022-11-22T06:33:00;2.50;;;1.30;;
3066;SDS011;1544;48.834;9.194;2022-11-22T06:35:35;3.33;;;1.40;;
3066;SDS011;1544;48.834;9.194;2022-11-22T06:38:10;2.90;;;1.87;;
3066;SDS011;1544;48.834;9.194;2022-11-22T06:40:45;3.13;;;2.13;;
3066;SDS011;1544;48.834;9.194;2022-11-22T06:43:20;2.90;;;1.30;;
3066;SDS011;1544;48.834;9.194;2022-11-22T06:45:56;6.70;;;1.50;;
3066;SDS011;1544;48.834;9.194;2022-11-22T06:48:34;3.23;;;1.23;;
3066;SDS011;1544;48.834;9.194;2022-11-22T06:53:48;1.63;;;1.00;;
3066;SDS011;1544;48.834;9.194;2022-11-22T06:56:28;1.73;;;1.10;;
3066;SDS011;1544;48.834;9.194;2022-11-22T06:59:06;5.43;;;1.30;;
3066;SDS011;1544;48.834;9.194;2022-11-22T07:01:42;2.20;;;1.20;;
3066;SDS011;1544;48.834;9.194;2022-11-22T07:04:17;1.97;;;1.20;;
3066;SDS011;1544;48.834;9.194;2022-11-22T07:06:53;2.30;;;1.20;;
3066;SDS011;1544;48.834;9.194;2022-11-22T07:09:28;2.60;;;1.20;;
3066;SDS011;1544;48.834;9.194;2022-11-22T07:12:03;3.37;;;1.20;;
3066;SDS011;1544;48.834;9.194;2022-11-22T07:14:38;3.47;;;1.43;;
3066;SDS011;1544;48.834;9.194;2022-11-22T07:17:13;2.37;;;1.20;;
3066;SDS011;1544;48.834;9.194;2022-11-22T07:19:48;1.40;;;0.93;;
3066;SDS011;1544;48.834;9.194;2022-11-22T07:22:23;3.13;;;1.20;;
3066;SDS011;1544;48.834;9.194;2022-11-22T07:24:58;4.50;;;1.43;;
3066;SDS011;1544;48.834;9.194;2022-11-22T07:27:33;2.50;;;1.20;;
3066;SDS011;1544;48.834;9.194;2022-11-22T07:30:08;1.37;;;1.23;;
3066;SDS011;1544;48.834;9.194;2022-11-22T07:32:47;1.60;;;1.30;;
3066;SDS011;1544;48.834;9.194;2022-11-22T07:35:22;1.63;;;1.33;;
3066;SDS011;1544;48.834;9.194;2022-11-22T07:37:57;1.80;;;1.47;;
3066;SDS011;1544;48.834;9.194;2022-11-22T07:40:32;3.20;;;1.87;;
3066;SDS011;1544;48.834;9.194;2022-11-22T07:43:08;2.80;;;1.53;;
3066;SDS011;1544;48.834;9.194;2022-11-22T07:45:43;4.10;;;1.70;;
3066;SDS011;1544;48.834;9.194;2022-11-22T07:48:18;3.20;;;2.43;;
3066;SDS011;1544;48.834;9.194;2022-11-22T07:50:53;2.87;;;2.57;;
3066;SDS011;1544;48.834;9.194;2022-11-22T07:53:28;4.53;;;2.27;;
3066;SDS011;1544;48.834;9.194;2022-11-22T07:56:03;2.50;;;2.27;;
3066;SDS011;1544;48.834;9.194;2022-11-22T07:58:40;3.73;;;2.30;;
3066;SDS011;1544;48.834;9.194;2022-11-22T08:01:15;3.60;;;1.80;;
3066;SDS011;1544;48.834;9.194;2022-11-22T08:03:51;4.00;;;1.43;;
3066;SDS011;1544;48.834;9.194;2022-11-22T08:06:26;4.23;;;1.83;;
3066;SDS011;1544;48.834;9.194;2022-11-22T08:09:01;3.73;;;1.33;;
3066;SDS011;1544;48.834;9.194;2022-11-22T08:11:36;4.50;;;1.40;;
3066;SDS011;1544;48.834;9.194;2022-11-22T08:14:11;4.07;;;1.47;;
3066;SDS011;1544;48.834;9.194;2022-11-22T08:16:46;2.53;;;1.20;;
3066;SDS011;1544;48.834;9.194;2022-11-22T08:19:21;4.20;;;1.30;;
3066;SDS011;1544;48.834;9.194;2022-11-22T08:21:56;2.50;;;1.30;;
3066;SDS011;1544;48.834;9.194;2022-11-22T08:24:32;1.50;;;1.10;;
3066;SDS011;1544;48.834;9.194;2022-11-22T08:27:07;2.53;;;1.00;;
3066;SDS011;1544;48.834;9.194;2022-11-22T08:29:42;3.87;;;1.50;;
3066;SDS011;1544;48.834;9.194;2022-11-22T08:32:16;2.60;;;1.30;;
3066;SDS011;1544;48.834;9.194;2022-11-22T08:34:51;3.50;;;1.23;;
3066;SDS011;1544;48.834;9.194;2022-11-22T08:37:26;1.50;;;0.90;;
3066;SDS011;1544;48.834;9.194;2022-11-22T08:40:01;3.20;;;1.27;;
3066;SDS011;1544;48.834;9.194;2022-11-22T08:42:37;5.90;;;1.27;;
3066;SDS011;1544;48.834;9.194;2022-11-22T08:45:12;2.60;;;1.10;;
3066;SDS011;1544;48.834;9.194;2022-11-22T08:47:47;2.30;;;1.27;;
3066;SDS011;1544;48.834;9.194;2022-11-22T08:50:22;4.70;;;1.20;;
3066;SDS011;1544;48.834;9.194;2022-11-22T08:52:58;3.70;;;1.30;;
3066;SDS011;1544;48.834;9.194;2022-11-22T08:55:34;3.37;;;1.10;;
3066;SDS011;1544;48.834;9.194;2022-11-22T08:58:09;2.73;;;1.30;;
3066;SDS011;1544;48.834;9.194;2022-11-22T09:00:44;3.20;;;1.10;;
3066;SDS011;1544;48.834;9.194;2022-11-22T09:03:19;2.07;;;1.17;;
3066;SDS011;1544;48.834;9.194;2022-11-22T09:05:59;3.50;;;1.30;;
3066;SDS011;1544;48.834;9.194;2022-11-22T09:08:58;2.50;;;1.20;;
3066;SDS011;1544;48.834;9.194;2022-11-22T09:11:53;3.03;;;1.10;;
3066;SDS011;1544;48.834;9.194;2022-11-22T09:14:28;3.73;;;1.20;;
3066;SDS011;1544;48.834;9.194;2022-11-22T09:17:03;1.47;;;1.03;;
3066;SDS011;1544;48.834;9.194;2022-11-22T09:19:39;4.67;;;1.20;;
3066;SDS011;1544;48.834;9.194;2022-11-22T09:22:14;2.77;;;1.03;;
3066;SDS011;1544;48.834;9.194;2022-11-22T09:24:49;3.77;;;1.63;;
3066;SDS011;1544;48.834;9.194;2022-11-22T09:27:24;3.33;;;1.73;;
3066;SDS011;1544;48.834;9.194;2022-11-22T09:30:00;1.30;;;0.90;;
3066;SDS011;1544;48.834;9.194;2022-11-22T09:32:35;1.17;;;1.10;;
3066;SDS011;1544;48.834;9.194;2022-11-22T09:35:10;1.60;;;0.90;;
3066;SDS011;1544;48.834;9.194;2022-11-22T09:37:45;2.40;;;1.00;;
3066;SDS011;1544;48.834;9.194;2022-11-22T09:40:20;4.93;;;1.00;;
3066;SDS011;1544;48.834;9.194;2022-11-22T09:45:51;2.93;;;1.20;;
3066;SDS011;1544;48.834;9.194;2022-11-22T09:55:04;2.87;;;1.20;;
3066;SDS011;1544;48.834;9.194;2022-11-22T09:58:43;2.50;;;1.10;;
3066;SDS011;1544;48.834;9.194;2022-11-22T10:01:06;3.67;;;1.43;;
3066;SDS011;1544;48.834;9.194;2022-11-22T10:06:42;2.30;;;1.00;;
3066;SDS011;1544;48.834;9.194;2022-11-22T10:12:10;2.63;;;1.23;;
3066;SDS011;1544;48.834;9.194;2022-11-22T10:21:16;1.80;;;0.90;;
3066;SDS011;1544;48.834;9.194;2022-11-22T10:23:52;3.80;;;1.40;;
3066;SDS011;1544;48.834;9.194;2022-11-22T10:26:33;3.47;;;1.20;;
3066;SDS011;1544;48.834;9.194;2022-11-22T10:32:19;1.70;;;1.40;;
3066;SDS011;1544;48.834;9.194;2022-11-22T10:35:22;2.80;;;1.00;;
3066;SDS011;1544;48.834;9.194;2022-11-22T10:44:13;2.37;;;1.00;;
3066;SDS011;1544;48.834;9.194;2022-11-22T10:52:39;5.80;;;1.30;;
3066;SDS011;1544;48.834;9.194;2022-11-22T11:00:02;5.77;;;1.40;;
3066;SDS011;1544;48.834;9.194;2022-11-22T11:02:40;3.33;;;1.07;;
3066;SDS011;1544;48.834;9.194;2022-11-22T11:08:49;1.10;;;0.90;;
3066;SDS011;1544;48.834;9.194;2022-11-22T11:11:52;2.37;;;1.10;;
3066;SDS011;1544;48.834;9.194;2022-11-22T11:14:29;4.43;;;1.20;;
3066;SDS011;1544;48.834;9.194;2022-11-22T11:17:17;2.30;;;1.20;;
3066;SDS011;1544;48.834;9.194;2022-11-22T11:20:00;4.87;;;1.40;;
3066;SDS011;1544;48.834;9.194;2022-11-22T11:22:47;1.97;;;0.97;;
3066;SDS011;1544;48.834;9.194;2022-11-22T11:25:43;2.97;;;0.80;;
3066;SDS011;1544;48.834;9.194;2022-11-22T11:28:21;1.80;;;0.93;;
3066;SDS011;1544;48.834;9.194;2022-11-22T11:31:00;6.40;;;0.97;;
3066;SDS011;1544;48.834;9.194;2022-11-22T11:33:43;2.60;;;0.83;;
3066;SDS011;1544;48.834;9.194;2022-11-22T11:36:20;1.80;;;0.90;;
3066;SDS011;1544;48.834;9.194;2022-11-22T11:38:57;2.73;;;0.90;;
3066;SDS011;1544;48.834;9.194;2022-11-22T11:41:32;3.53;;;1.33;;
3066;SDS011;1544;48.834;9.194;2022-11-22T11:44:25;2.60;;;0.87;;
3066;SDS011;1544;48.834;9.194;2022-11-22T11:47:03;3.17;;;0.80;;
3066;SDS011;1544;48.834;9.194;2022-11-22T11:49:38;1.80;;;0.60;;
3066;SDS011;1544;48.834;9.194;2022-11-22T11:52:24;1.63;;;0.70;;
3066;SDS011;1544;48.834;9.194;2022-11-22T11:55:01;2.70;;;0.80;;
3066;SDS011;1544;48.834;9.194;2022-11-22T11:57:36;2.23;;;0.70;;
3066;SDS011;1544;48.834;9.194;2022-11-22T12:00:19;4.50;;;0.90;;
3066;SDS011;1544;48.834;9.194;2022-11-22T12:02:59;1.93;;;0.80;;
3066;SDS011;1544;48.834;9.194;2022-11-22T12:05:39;1.30;;;0.73;;
3066;SDS011;1544;48.834;9.194;2022-11-22T12:08:27;2.07;;;0.70;;
3066;SDS011;1544;48.834;9.194;2022-11-22T12:11:05;1.60;;;0.73;;
3066;SDS011;1544;48.834;9.194;2022-11-22T12:13:48;2.50;;;0.90;;
3066;SDS011;1544;48.834;9.194;2022-11-22T12:16:49;1.00;;;0.60;;
3066;SDS011;1544;48.834;9.194;2022-11-22T12:19:49;2.53;;;1.10;;
3066;SDS011;1544;48.834;9.194;2022-11-22T12:25:51;1.23;;;0.57;;
3066;SDS011;1544;48.834;9.194;2022-11-22T12:28:30;3.30;;;0.73;;
3066;SDS011;1544;48.834;9.194;2022-11-22T12:31:07;5.37;;;1.27;;
3066;SDS011;1544;48.834;9.194;2022-11-22T12:34:01;2.90;;;0.60;;
3066;SDS011;1544;48.834;9.194;2022-11-22T12:36:47;0.70;;;0.70;;
3066;SDS011;1544;48.834;9.194;2022-11-22T12:39:27;1.40;;;0.70;;
3066;SDS011;1544;48.834;9.194;2022-11-22T12:42:07;2.20;;;0.50;;
3066;SDS011;1544;48.834;9.194;2022-11-22T12:45:03;1.43;;;0.50;;
3066;SDS011;1544;48.834;9.194;2022-11-22T12:47:45;4.80;;;0.60;;
3066;SDS011;1544;48.834;9.194;2022-11-22T12:50:27;2.70;;;0.60;;
3066;SDS011;1544;48.834;9.194;2022-11-22T12:53:12;2.73;;;0.90;;
3066;SDS011;1544;48.834;9.194;2022-11-22T12:55:53;1.70;;;0.60;;
3066;SDS011;1544;48.834;9.194;2022-11-22T12:58:46;3.33;;;0.77;;
3066;SDS011;1544;48.834;9.194;2022-11-22T13:01:37;0.80;;;0.60;;
3066;SDS011;1544;48.834;9.194;2022-11-22T13:04:37;3.47;;;0.70;;
3066;SDS011;1544;48.834;9.194;2022-11-22T13:13:52;3.03;;;0.70;;
3066;SDS011;1544;48.834;9.194;2022-11-22T13:16:31;5.30;;;0.80;;
3066;SDS011;1544;48.834;9.194;2022-11-22T13:19:07;2.20;;;0.70;;
3066;SDS011;1544;48.834;9.194;2022-11-22T13:27:55;1.10;;;0.83;;
3066;SDS011;1544;48.834;9.194;2022-11-22T13:30:34;3.37;;;0.67;;
3066;SDS011;1544;48.834;9.194;2022-11-22T13:33:22;1.93;;;0.60;;
3066;SDS011;1544;48.834;9.194;2022-11-22T13:39:11;2.77;;;0.70;;
3066;SDS011;1544;48.834;9.194;2022-11-22T13:44:34;2.10;;;0.70;;
3066;SDS011;1544;48.834;9.194;2022-11-22T13:49:47;3.07;;;0.73;;
3066;SDS011;1544;48.834;9.194;2022-11-22T13:52:28;2.40;;;0.70;;
3066;SDS011;1544;48.834;9.194;2022-11-22T13:55:29;1.43;;;0.60;;
3066;SDS011;1544;48.834;9.194;2022-11-22T14:00:59;1.40;;;0.60;;
3066;SDS011;1544;48.834;9.194;2022-11-22T14:03:40;1.43;;;0.70;;
3066;SDS011;1544;48.834;9.194;2022-11-22T14:06:23;1.43;;;0.90;;
3066;SDS011;1544;48.834;9.194;2022-11-22T14:15:49;0.97;;;0.60;;
3066;SDS011;1544;48.834;9.194;2022-11-22T14:18:42;0.80;;;0.50;;
3066;SDS011;1544;48.834;9.194;2022-11-22T14:24:39;1.00;;;0.50;;
3066;SDS011;1544;48.834;9.194;2022-11-22T14:30:19;0.97;;;0.57;;
3066;SDS011;1544;48.834;9.194;2022-11-22T14:33:24;0.90;;;0.63;;
3066;SDS011;1544;48.834;9.194;2022-11-22T14:38:47;0.97;;;0.60;;
3066;SDS011;1544;48.834;9.194;2022-11-22T14:44:03;1.83;;;0.60;;
3066;SDS011;1544;48.834;9.194;2022-11-22T14:46:54;0.70;;;0.70;;
3066;SDS011;1544;48.834;9.194;2022-11-22T14:49:45;0.87;;;0.70;;
3066;SDS011;1544;48.834;9.194;2022-11-22T14:52:23;1.20;;;0.50;;
3066;SDS011;1544;48.834;9.194;2022-11-22T14:55:02;1.33;;;0.80;;
3066;SDS011;1544;48.834;9.194;2022-11-22T14:57:39;1.53;;;0.60;;
3066;SDS011;1544;48.834;9.194;2022-11-22T15:00:20;0.90;;;0.50;;
3066;SDS011;1544;48.834;9.194;2022-11-22T15:03:01;0.80;;;0.60;;
3066;SDS011;1544;48.834;9.194;2022-11-22T15:06:11;0.57;;;0.53;;
3066;SDS011;1544;48.834;9.194;2022-11-22T15:09:40;0.70;;;0.50;;
3066;SDS011;1544;48.834;9.194;2022-11-22T15:13:21;1.10;;;0.60;;
3066;SDS011;1544;48.834;9.194;2022-11-22T15:16:09;1.07;;;0.60;;
3066;SDS011;1544;48.834;9.194;2022-11-22T15:19:30;2.57;;;0.53;;
3066;SDS011;1544;48.834;9.194;2022-11-22T15:22:27;1.73;;;0.60;;
3066;SDS011;1544;48.834;9.194;2022-11-22T15:25:22;1.57;;;0.80;;
3066;SDS011;1544;48.834;9.194;2022-11-22T15:28:18;0.70;;;0.70;;
3066;SDS011;1544;48.834;9.194;2022-11-22T15:31:16;1.77;;;0.50;;
3066;SDS011;1544;48.834;9.194;2022-11-22T15:34:19;1.00;;;0.50;;
3066;SDS011;1544;48.834;9.194;2022-11-22T15:37:58;0.50;;;0.50;;
3066;SDS011;1544;48.834;9.194;2022-11-22T15:41:02;2.13;;;1.10;;
3066;SDS011;1544;48.834;9.194;2022-11-22T15:43:58;1.43;;;0.60;;
3066;SDS011;1544;48.834;9.194;2022-11-22T15:46:57;2.77;;;0.90;;
3066;SDS011;1544;48.834;9.194;2022-11-22T15:49:53;5.90;;;0.97;;
3066;SDS011;1544;48.834;9.194;2022-11-22T15:52:50;1.27;;;0.80;;
3066;SDS011;1544;48.834;9.194;2022-11-22T15:55:54;0.70;;;0.60;;
3066;SDS011;1544;48.834;9.194;2022-11-22T15:58:56;1.63;;;0.70;;
3066;SDS011;1544;48.834;9.194;2022-11-22T16:01:35;0.67;;;0.60;;
3066;SDS011;1544;48.834;9.194;2022-11-22T16:07:08;0.87;;;0.67;;
3066;SDS011;1544;48.834;9.194;2022-11-22T16:09:54;2.20;;;0.80;;
3066;SDS011;1544;48.834;9.194;2022-11-22T16:12:34;2.87;;;0.83;;
3066;SDS011;1544;48.834;9.194;2022-11-22T16:21:02;0.90;;;0.80;;
3066;SDS011;1544;48.834;9.194;2022-11-22T16:23:40;1.93;;;0.80;;
3066;SDS011;1544;48.834;9.194;2022-11-22T16:26:24;1.00;;;0.80;;
3066;SDS011;1544;48.834;9.194;2022-11-22T16:29:20;2.43;;;0.70;;
3066;SDS011;1544;48.834;9.194;2022-11-22T16:32:13;0.93;;;0.80;;
3066;SDS011;1544;48.834;9.194;2022-11-22T16:34:49;4.27;;;0.83;;
3066;SDS011;1544;48.834;9.194;2022-11-22T16:37:44;2.10;;;1.20;;
3066;SDS011;1544;48.834;9.194;2022-11-22T16:40:21;3.80;;;0.80;;
3066;SDS011;1544;48.834;9.194;2022-11-22T16:42:56;1.00;;;0.83;;
3066;SDS011;1544;48.834;9.194;2022-11-22T16:45:31;2.57;;;0.70;;
3066;SDS011;1544;48.834;9.194;2022-11-22T16:48:17;0.83;;;0.70;;
3066;SDS011;1544;48.834;9.194;2022-11-22T16:51:11;1.97;;;0.80;;
3066;SDS011;1544;48.834;9.194;2022-11-22T16:53:57;0.70;;;0.67;;
3066;SDS011;1544;48.834;9.194;2022-11-22T16:56:38;1.10;;;1.00;;
3066;SDS011;1544;48.834;9.194;2022-11-22T16:59:13;1.10;;;0.70;;
3066;SDS011;1544;48.834;9.194;2022-11-22T17:01:48;1.10;;;0.80;;
3066;SDS011;1544;48.834;9.194;2022-11-22T17:04:23;1.70;;;0.90;;
3066;SDS011;1544;48.834;9.194;2022-11-22T17:07:00;0.80;;;0.73;;
3066;SDS011;1544;48.834;9.194;2022-11-22T17:09:35;1.53;;;1.00;;
3066;SDS011;1544;48.834;9.194;2022-11-22T17:12:13;0.80;;;0.73;;
3066;SDS011;1544;48.834;9.194;2022-11-22T17:14:56;2.00;;;0.80;;
3066;SDS011;1544;48.834;9.194;2022-11-22T17:17:32;0.93;;;0.60;;
3066;SDS011;1544;48.834;9.194;2022-11-22T17:20:07;1.27;;;0.80;;
3066;SDS011;1544;48.834;9.194;2022-11-22T17:22:43;0.80;;;0.70;;
3066;SDS011;1544;48.834;9.194;2022-11-22T17:25:18;1.67;;;0.60;;
3066;SDS011;1544;48.834;9.194;2022-11-22T17:27:52;1.73;;;0.67;;
3066;SDS011;1544;48.834;9.194;2022-11-22T17:30:27;2.23;;;0.60;;
3066;SDS011;1544;48.834;9.194;2022-11-22T17:33:02;1.90;;;0.60;;
3066;SDS011;1544;48.834;9.194;2022-11-22T17:35:37;0.50;;;0.50;;
3066;SDS011;1544;48.834;9.194;2022-11-22T17:38:13;0.53;;;0.53;;
3066;SDS011;1544;48.834;9.194;2022-11-22T17:40:48;2.47;;;0.70;;
3066;SDS011;1544;48.834;9.194;2022-11-22T17:43:31;1.80;;;0.87;;
3066;SDS011;1544;48.834;9.194;2022-11-22T17:46:10;0.70;;;0.67;;
3066;SDS011;1544;48.834;9.194;2022-11-22T17:48:51;3.90;;;1.23;;
3066;SDS011;1544;48.834;9.194;2022-11-22T17:51:28;1.53;;;0.80;;
3066;SDS011;1544;48.834;9.194;2022-11-22T17:54:05;1.03;;;0.80;;
3066;SDS011;1544;48.834;9.194;2022-11-22T17:56:41;0.90;;;0.60;;
3066;SDS011;1544;48.834;9.194;2022-11-22T17:59:16;0.80;;;0.60;;
3066;SDS011;1544;48.834;9.194;2022-11-22T18:01:52;1.43;;;0.70;;
3066;SDS011;1544;48.834;9.194;2022-11-22T18:04:27;0.90;;;0.80;;
3066;SDS011;1544;48.834;9.194;2022-11-22T18:07:02;0.83;;;0.60;;
3066;SDS011;1544;48.834;9.194;2022-11-22T18:09:38;2.70;;;0.70;;
3066;SDS011;1544;48.834;9.194;2022-11-22T18:12:12;0.63;;;0.53;;
3066;SDS011;1544;48.834;9.194;2022-11-22T18:14:47;1.43;;;0.63;;